Wetterdaten: aktuell Samstag, 19.10.2019 11:50
Datum Zeit Temperatur Bodentemp. Luftfeuchte Luftdruck Niederschlag Windgeschw. Windrichtung Windrichtung Sonnenschein Nieder.dauer Evapotrans. Solarstrahl. Taupunkt Windchill Windböen
19.10.2019 11:50 12,1 °C 11,7 °C 85 % 1005,4 hPa 0,2 l/m² 0,0 km/h (0 Bft) N 0 ° 11 min 1 min 0 mm 134 W/m² 9,7 °C 12,1 °C 0,0 km/h (0 Bft)
19.10.2019 10:50 11,1 °C 11,1 °C 86 % 1005,1 hPa 0,0 l/m² 0,0 km/h (0 Bft) SW 225 ° 4 min 0 min 0 mm 172 W/m² 8,8 °C 11,1 °C 7,2 km/h (2 Bft)
19.10.2019 09:50 10,4 °C 10,0 °C 88 % 1005,0 hPa 0,0 l/m² 0,0 km/h (0 Bft) N 0 ° 0 min 0 min 0 mm 109 W/m² 8,5 °C 10,4 °C 0,0 km/h (0 Bft)
19.10.2019 08:50 9,0 °C 8,9 °C 92 % 1005,4 hPa 0,0 l/m² 1,8 km/h (1 Bft) S 180 ° 0 min 0 min 0 mm 35 W/m² 7,8 °C 9,0 °C 7,2 km/h (2 Bft)
19.10.2019 07:50 8,7 °C 8,3 °C 92 % 1005,6 hPa 0,0 l/m² 3,6 km/h (1 Bft) S-SO 157 ° 0 min 0 min 0 mm 0 W/m² 7,5 °C 8,7 °C 9,0 km/h (2 Bft)
19.10.2019 06:50 8,7 °C 8,3 °C 91 % 1005,6 hPa 0,0 l/m² 1,8 km/h (1 Bft) S 180 ° 0 min 0 min 0 mm 0 W/m² 7,3 °C 8,7 °C 14,4 km/h (3 Bft)
19.10.2019 05:50 9,0 °C 8,3 °C 90 % 1005,6 hPa 0,0 l/m² 5,4 km/h (1 Bft) S 180 ° 0 min 0 min 0 mm 0 W/m² 7,4 °C 9,0 °C 10,8 km/h (2 Bft)
19.10.2019 04:50 9,2 °C 8,9 °C 89 % 1005,6 hPa 0,0 l/m² 1,8 km/h (1 Bft) S-SW 202 ° 0 min 0 min 0 mm 0 W/m² 7,5 °C 9,2 °C 3,6 km/h (1 Bft)
19.10.2019 03:50 9,5 °C 8,9 °C 89 % 1005,5 hPa 0,0 l/m² 5,4 km/h (1 Bft) S-SW 202 ° 0 min 0 min 0 mm 0 W/m² 7,8 °C 9,5 °C 16,1 km/h (3 Bft)
19.10.2019 02:50 9,7 °C 8,9 °C 88 % 1005,2 hPa 0,0 l/m² 7,2 km/h (2 Bft) S-SW 202 ° 0 min 0 min 0 mm 0 W/m² 7,8 °C 9,1 °C 16,1 km/h (3 Bft)
19.10.2019 01:50 9,9 °C 8,9 °C 88 % 1005,5 hPa 0,0 l/m² 3,6 km/h (1 Bft) SW 225 ° 0 min 0 min 0 mm 0 W/m² 8,0 °C 9,9 °C 14,4 km/h (3 Bft)
19.10.2019 00:50 9,9 °C 9,4 °C 89 % 1005,1 hPa 0,0 l/m² 1,8 km/h (1 Bft) S-SW 202 ° 0 min 0 min 0 mm 0 W/m² 8,2 °C 9,9 °C 14,4 km/h (3 Bft)
18.10.2019 23:50 10,2 °C 8,9 °C 89 % 1005,1 hPa 0,0 l/m² 10,8 km/h (2 Bft) S-SW 202 ° 0 min 0 min 0 mm 0 W/m² 8,5 °C 7,4 °C 19,7 km/h (3 Bft)
18.10.2019 22:50 10,3 °C 8,9 °C 90 % 1004,9 hPa 0,0 l/m² 9,0 km/h (2 Bft) SW 225 ° 0 min 0 min 0 mm 0 W/m² 8,7 °C 8,5 °C 17,9 km/h (3 Bft)
18.10.2019 21:50 10,6 °C 9,4 °C 89 % 1004,3 hPa 0,0 l/m² 9,0 km/h (2 Bft) S-SW 202 ° 0 min 0 min 0 mm 0 W/m² 8,9 °C 8,8 °C 21,5 km/h (4 Bft)
18.10.2019 20:50 11,1 °C 9,4 °C 89 % 1003,9 hPa 0,0 l/m² 3,6 km/h (1 Bft) SW 225 ° 0 min 0 min 0 mm 0 W/m² 9,4 °C 11,1 °C 10,8 km/h (2 Bft)
18.10.2019 19:50 11,4 °C 10,0 °C 91 % 1003,5 hPa 0,0 l/m² 7,2 km/h (2 Bft) S-SW 202 ° 0 min 0 min 0 mm 0 W/m² 10,0 °C 10,9 °C 19,7 km/h (3 Bft)
18.10.2019 18:50 11,6 °C 10,6 °C 94 % 1002,9 hPa 0,0 l/m² 9,0 km/h (2 Bft) S 180 ° 3 min 0 min 0 mm 0 W/m² 10,7 °C 9,9 °C 17,9 km/h (3 Bft)
18.10.2019 17:50 11,4 °C 10,6 °C 94 % 1002,3 hPa 0,0 l/m² 3,6 km/h (1 Bft) S 180 ° 5 min 0 min 0 mm 28 W/m² 10,5 °C 11,4 °C 16,1 km/h (3 Bft)
18.10.2019 16:50 11,7 °C 11,1 °C 95 % 1001,6 hPa 2,6 l/m² 1,8 km/h (1 Bft) S-SW 202 ° 1 min 39 min 0 mm 169 W/m² 10,9 °C 11,7 °C 7,2 km/h (2 Bft)
18.10.2019 15:50 15,6 °C 13,9 °C 87 % 1000,6 hPa 0,0 l/m² 0,0 km/h (0 Bft) N 0 ° 14 min 0 min 0 mm 70 W/m² 13,4 °C 15,6 °C 0,0 km/h (0 Bft)
18.10.2019 14:50 16,3 °C 15,0 °C 86 % 1002,3 hPa 0,0 l/m² 5,4 km/h (1 Bft) S-SO 157 ° 5 min 0 min 0 mm 174 W/m² 14,0 °C 16,3 °C 14,4 km/h (3 Bft)
18.10.2019 13:50 15,5 °C 14,4 °C 92 % 1003,0 hPa 0,0 l/m² 3,6 km/h (1 Bft) S-SO 157 ° 23 min 0 min 0 mm 162 W/m² 14,2 °C 15,5 °C 12,6 km/h (3 Bft)
18.10.2019 12:50 14,7 °C 13,9 °C 97 % 1004,2 hPa 0,0 l/m² 0,0 km/h (0 Bft) N 0 ° 0 min 0 min 0 mm 202 W/m² 14,2 °C 14,7 °C 0,0 km/h (0 Bft)
18.10.2019 12:00 14,5 °C 13,9 °C 100 % 1004,8 hPa 0,0 l/m² 1,8 km/h (1 Bft) S-SW 202 ° 0 min 0 min 0 mm 160 W/m² 14,5 °C 14,5 °C 7,2 km/h (2 Bft)
_ Min-Zeit 06:39 04:08 11:14 16:00 - 12:01 - - - - - - 06:40 01:06 12:08
Minimum _ 8,7 °C 8,3 °C 83 % 1000,4 hPa - 0,0 km/h (0 Bft) - - - - - - 7,3 °C 3,5 °C 0,0 km/h (0 Bft)
_ Max-Zeit 15:05 14:06 12:00 04:00 16:28 01:06 - - 12:55 16:09 14:00 14:55 12:10 15:05 16:29
Maximum _ 16,4 °C 15,0 °C 100 % 1005,6 hPa 0,6 l/m² 19,7 km/h
SW (3 Bft)
- - 1 min 1 min 0 mm 499 W/m² 14,6 °C 16,4 °C 35,9 km/h
S-SW (5 Bft)
Durchschnitt _ 11,5 °C 10,6 °C 91 % 1004,3 hPa #2,8 l/m² 3,2 km/h (1 Bft) S-SW - #15 min. #1 min. #0,127 mm 95 W/m² 10,0 °C 11,2 °C 10,4 km/h (2 Bft)